Time;durP1;ratioP1;P1;durP2;ratioP2;P2;SDS_P1;SDS_P2;PMS_P1;PMS_P2;Temp;Humidity;BMP_temperature;BMP_pressure;BME280_temperature;BME280_humidity;BME280_pressure;Samples;Min_cycle;Max_cycle;Signal;HPM_P1;HPM_P2
2022/04/05 00:02:24;;;;;;;7.97;0.87;;;6.10;88.60;;;;;;5048175;28;20062;-72
2022/04/05 00:04:50;;;;;;;5.32;0.70;;;6.10;88.50;;;;;;5038511;28;20129;-73
2022/04/05 00:07:16;;;;;;;6.43;0.73;;;6.10;88.60;;;;;;5037928;28;20075;-72
2022/04/05 00:09:42;;;;;;;7.85;0.60;;;6.10;88.50;;;;;;5067887;28;20047;-73
2022/04/05 00:12:08;;;;;;;5.85;1.00;;;6.10;88.50;;;;;;5042279;28;20047;-73
2022/04/05 00:14:34;;;;;;;7.72;1.10;;;6.00;88.40;;;;;;5037156;28;20154;-73
2022/04/05 00:17:00;;;;;;;6.57;0.90;;;6.10;88.50;;;;;;5061793;28;20047;-73
2022/04/05 00:19:26;;;;;;;5.32;0.65;;;6.00;88.40;;;;;;5043017;28;20036;-73
2022/04/05 00:21:54;;;;;;;8.73;0.80;;;6.00;88.40;;;;;;5054041;28;20084;-72
2022/04/05 00:24:20;;;;;;;9.05;1.13;;;6.00;88.40;;;;;;5048542;28;20071;-72
2022/04/05 00:26:46;;;;;;;10.10;0.88;;;6.00;88.50;;;;;;5042290;28;20036;-73
2022/04/05 00:29:12;;;;;;;4.23;0.70;;;6.00;88.40;;;;;;5059315;28;20554;-73
2022/04/05 00:31:37;;;;;;;4.73;0.67;;;6.00;88.40;;;;;;5070697;28;20581;-73
2022/04/05 00:34:03;;;;;;;9.20;0.83;;;6.00;88.50;;;;;;5037862;28;20040;-72
2022/04/05 00:36:29;;;;;;;6.70;1.30;;;6.00;88.50;;;;;;5053829;28;20128;-72
2022/04/05 00:38:55;;;;;;;6.43;1.00;;;6.00;88.50;;;;;;5028437;28;20309;-72
2022/04/05 00:41:20;;;;;;;6.90;0.93;;;6.00;88.50;;;;;;5036687;28;20045;-72
2022/04/05 00:43:46;;;;;;;6.60;1.43;;;6.00;88.40;;;;;;5032232;28;20041;-72
2022/04/05 00:46:12;;;;;;;9.17;1.00;;;6.00;88.40;;;;;;5047651;28;20048;-72
2022/04/05 00:48:50;;;;;;;10.57;1.10;;;5.90;88.40;;;;;;5052566;28;20040;-72
2022/04/05 00:51:16;;;;;;;7.18;0.80;;;5.90;88.50;;;;;;5060737;28;20130;-72
2022/04/05 00:53:48;;;;;;;7.03;0.82;;;5.90;88.50;;;;;;5043323;28;20137;-73
2022/04/05 00:56:18;;;;;;;8.57;0.98;;;5.90;88.50;;;;;;5031723;28;20044;-73
2022/04/05 00:58:52;;;;;;;9.85;0.90;;;5.90;88.50;;;;;;5034472;28;20047;-73
2022/04/05 01:01:20;;;;;;;7.68;0.90;;;5.90;88.40;;;;;;5050565;28;20686;-73
2022/04/05 01:03:50;;;;;;;9.90;1.50;;;5.90;88.40;;;;;;5059370;28;20037;-72
2022/04/05 01:06:30;;;;;;;10.85;1.20;;;5.90;88.50;;;;;;5044983;28;20041;-72
2022/04/05 01:08:56;;;;;;;7.50;1.20;;;5.90;88.50;;;;;;5033288;28;20033;-72
2022/04/05 01:11:23;;;;;;;7.60;1.27;;;5.90;88.60;;;;;;5047797;28;20043;-72
2022/04/05 01:13:48;;;;;;;12.88;1.20;;;5.90;88.60;;;;;;5046849;28;20045;-72
2022/04/05 01:16:14;;;;;;;6.43;1.10;;;5.90;88.50;;;;;;5051154;28;20082;-72
2022/04/05 01:18:41;;;;;;;7.80;1.00;;;5.90;88.60;;;;;;5050550;28;20119;-72
2022/04/05 01:21:07;;;;;;;10.05;1.30;;;5.90;88.60;;;;;;5036172;28;20037;-72
2022/04/05 01:23:33;;;;;;;10.00;1.30;;;6.00;88.70;;;;;;5041312;28;20472;-72
2022/04/05 01:25:59;;;;;;;11.40;1.57;;;6.00;88.70;;;;;;5040445;28;20048;-72
2022/04/05 01:28:25;;;;;;;6.50;1.40;;;6.00;88.60;;;;;;5041526;28;20485;-72
2022/04/05 01:30:52;;;;;;;9.87;1.63;;;6.00;88.70;;;;;;5037699;28;20095;-72
2022/04/05 01:33:18;;;;;;;11.32;1.70;;;6.10;88.70;;;;;;5039483;28;20033;-73
2022/04/05 01:35:44;;;;;;;12.32;1.80;;;6.10;88.80;;;;;;5047266;28;20040;-73
2022/04/05 01:38:11;;;;;;;9.53;1.77;;;6.10;88.80;;;;;;5049329;28;20066;-73
2022/04/05 01:40:38;;;;;;;9.00;1.48;;;6.10;88.80;;;;;;5048727;28;20040;-72
2022/04/05 01:43:03;;;;;;;12.55;1.70;;;6.20;88.80;;;;;;5049876;28;20420;-72
2022/04/05 01:45:29;;;;;;;12.47;1.57;;;6.20;88.80;;;;;;5042952;28;20051;-72
2022/04/05 01:47:55;;;;;;;11.03;1.70;;;6.20;88.70;;;;;;5043967;28;20712;-72
2022/04/05 01:50:21;;;;;;;13.80;1.60;;;6.20;88.80;;;;;;5038239;28;20147;-72
2022/04/05 01:52:46;;;;;;;8.13;1.70;;;6.20;88.80;;;;;;5063419;28;20436;-72
2022/04/05 01:55:12;;;;;;;10.57;1.70;;;6.30;88.90;;;;;;5032944;28;20110;-72
2022/04/05 01:57:38;;;;;;;10.30;1.53;;;6.30;88.90;;;;;;5043656;28;20043;-72
2022/04/05 02:00:14;;;;;;;9.93;1.70;;;6.30;88.90;;;;;;5027078;28;20497;-71
2022/04/05 02:02:42;;;;;;;9.85;1.75;;;6.30;88.90;;;;;;5040645;28;20119;-71
2022/04/05 02:05:10;;;;;;;13.35;2.53;;;6.30;88.80;;;;;;5060577;28;20048;-70
2022/04/05 02:07:36;;;;;;;8.93;1.25;;;6.30;88.80;;;;;;5053871;28;20085;-70
2022/04/05 02:10:03;;;;;;;14.43;1.73;;;6.30;88.80;;;;;;5046548;28;20048;-70
2022/04/05 02:12:28;;;;;;;8.38;1.65;;;6.30;88.80;;;;;;5054456;28;20307;-71
2022/04/05 02:14:54;;;;;;;13.07;1.60;;;6.30;88.90;;;;;;5032729;28;20031;-71
2022/04/05 02:17:20;;;;;;;11.57;1.30;;;6.30;88.90;;;;;;5039634;28;20089;-70
2022/04/05 02:19:46;;;;;;;10.23;1.47;;;6.30;88.90;;;;;;5046802;28;20040;-70
2022/04/05 02:22:11;;;;;;;10.03;1.60;;;6.30;88.80;;;;;;5039599;28;20043;-72
2022/04/05 02:24:37;;;;;;;10.23;1.47;;;6.30;88.80;;;;;;5016167;28;20036;-72
2022/04/05 02:27:03;;;;;;;12.43;1.40;;;6.30;88.80;;;;;;5050155;28;20041;-72
2022/04/05 02:29:29;;;;;;;12.47;1.30;;;6.30;88.90;;;;;;5033827;28;20040;-73
2022/04/05 02:31:54;;;;;;;13.57;1.60;;;6.30;88.90;;;;;;5035494;28;20037;-72
2022/04/05 02:34:20;;;;;;;14.00;1.87;;;6.30;88.90;;;;;;5026958;28;20120;-73
2022/04/05 02:36:46;;;;;;;13.77;1.30;;;6.30;88.80;;;;;;5042491;28;20091;-73
2022/04/05 02:39:12;;;;;;;14.63;1.50;;;6.30;88.90;;;;;;5050200;28;20086;-72
2022/04/05 02:41:38;;;;;;;12.50;1.52;;;6.30;88.90;;;;;;5039861;28;20043;-72
2022/04/05 02:44:04;;;;;;;13.73;1.53;;;6.30;89.00;;;;;;5047688;28;20040;-72
2022/04/05 02:46:30;;;;;;;12.02;1.40;;;6.30;88.90;;;;;;5017267;28;20097;-72
2022/04/05 02:48:56;;;;;;;9.43;1.17;;;6.30;89.00;;;;;;5013497;28;20036;-72
2022/04/05 02:51:22;;;;;;;14.67;1.60;;;6.30;89.00;;;;;;5033578;28;20041;-72
2022/04/05 02:53:48;;;;;;;13.65;1.80;;;6.30;88.90;;;;;;5057024;28;20052;-72
2022/04/05 02:56:15;;;;;;;12.27;1.50;;;6.30;89.00;;;;;;5041313;28;20047;-72
2022/04/05 02:58:41;;;;;;;11.70;1.60;;;6.30;88.90;;;;;;5039550;28;20044;-72
2022/04/05 03:01:07;;;;;;;7.22;1.35;;;6.30;88.90;;;;;;5066857;28;20043;-72
2022/04/05 03:03:33;;;;;;;6.07;1.03;;;6.20;88.90;;;;;;5042071;28;20508;-72
2022/04/05 03:05:59;;;;;;;13.50;1.60;;;6.20;88.80;;;;;;5035327;28;20045;-72
2022/04/05 03:08:25;;;;;;;8.60;1.10;;;6.20;88.80;;;;;;5034681;28;20044;-72
2022/04/05 03:10:52;;;;;;;14.07;1.30;;;6.20;88.80;;;;;;5024940;28;20048;-72
2022/04/05 03:13:18;;;;;;;8.50;1.05;;;6.20;88.70;;;;;;5006437;28;20048;-72
2022/04/05 03:15:44;;;;;;;10.30;1.00;;;6.10;88.60;;;;;;5043964;28;20033;-72
2022/04/05 03:18:10;;;;;;;10.37;1.37;;;6.10;88.60;;;;;;5029845;28;20544;-72
2022/04/05 03:20:35;;;;;;;10.53;1.20;;;6.10;88.70;;;;;;5018603;28;20492;-72
2022/04/05 03:23:01;;;;;;;10.70;1.00;;;6.10;88.70;;;;;;5010183;28;20056;-72
2022/04/05 03:25:27;;;;;;;10.37;1.37;;;6.10;88.60;;;;;;5021681;28;20041;-72
2022/04/05 03:27:54;;;;;;;8.80;0.80;;;6.10;88.60;;;;;;5053967;28;20421;-72
2022/04/05 03:30:22;;;;;;;11.95;1.20;;;6.10;88.60;;;;;;5061576;28;20049;-72
2022/04/05 03:32:48;;;;;;;15.38;1.80;;;6.00;88.70;;;;;;5035149;28;20044;-72
2022/04/05 03:35:14;;;;;;;12.15;1.13;;;6.00;88.50;;;;;;5036502;28;20045;-72
2022/04/05 03:37:40;;;;;;;7.13;1.15;;;6.00;88.60;;;;;;5020200;28;20515;-72
2022/04/05 03:40:06;;;;;;;7.17;1.10;;;6.00;88.70;;;;;;5021061;28;20045;-72
2022/04/05 03:42:32;;;;;;;9.73;2.22;;;6.00;88.60;;;;;;5045826;28;20044;-72
2022/04/05 03:44:59;;;;;;;12.88;1.33;;;6.00;88.70;;;;;;5050116;28;20328;-72
2022/04/05 03:47:26;;;;;;;6.07;1.05;;;6.00;88.70;;;;;;5051610;28;20037;-72
2022/04/05 03:49:52;;;;;;;10.43;1.10;;;6.00;88.70;;;;;;5035120;28;20401;-72
2022/04/05 03:52:18;;;;;;;8.17;1.20;;;6.00;88.80;;;;;;5036823;28;20048;-72
2022/04/05 03:54:43;;;;;;;8.50;1.00;;;6.00;88.70;;;;;;5023720;28;20210;-73
2022/04/05 03:57:09;;;;;;;5.97;0.80;;;6.00;88.70;;;;;;5030244;28;20072;-73
2022/04/05 03:59:35;;;;;;;6.53;1.40;;;6.00;88.70;;;;;;5061063;28;20051;-73
2022/04/05 04:02:00;;;;;;;9.90;1.13;;;6.00;88.80;;;;;;5019211;28;20044;-73
2022/04/05 04:04:26;;;;;;;7.87;0.83;;;6.00;88.70;;;;;;5059269;28;20125;-72
2022/04/05 04:06:51;;;;;;;6.20;1.30;;;6.00;88.80;;;;;;5039638;28;20056;-72
2022/04/05 04:09:17;;;;;;;8.93;1.57;;;6.00;88.70;;;;;;5042533;28;20045;-72
2022/04/05 04:11:44;;;;;;;6.73;1.80;;;5.90;88.60;;;;;;5038500;28;20084;-73
2022/04/05 04:14:11;;;;;;;7.50;1.20;;;6.00;88.70;;;;;;5047755;28;20041;-73
2022/04/05 04:16:37;;;;;;;11.10;1.35;;;6.00;88.70;;;;;;5039258;28;20095;-73
2022/04/05 04:19:03;;;;;;;8.63;1.35;;;6.00;88.70;;;;;;5052166;28;20428;-73
2022/04/05 04:21:29;;;;;;;9.90;1.20;;;6.00;88.60;;;;;;5059701;28;20045;-73
2022/04/05 04:23:55;;;;;;;6.17;1.20;;;5.90;88.70;;;;;;5051008;28;20575;-73
2022/04/05 04:26:21;;;;;;;8.70;1.00;;;5.90;88.60;;;;;;5045203;28;20037;-73
2022/04/05 04:28:51;;;;;;;8.60;1.00;;;5.90;88.50;;;;;;5027504;28;20385;-73
2022/04/05 04:31:17;;;;;;;6.45;1.20;;;5.90;88.50;;;;;;5050203;28;20283;-73
2022/04/05 04:33:43;;;;;;;10.18;1.30;;;5.90;88.50;;;;;;5051468;28;20048;-73
2022/04/05 04:36:09;;;;;;;8.37;1.47;;;5.90;88.40;;;;;;5056496;28;20408;-73
2022/04/05 04:38:35;;;;;;;6.30;0.80;;;5.90;88.40;;;;;;5050922;28;20554;-73
2022/04/05 04:41:00;;;;;;;11.60;1.80;;;5.90;88.40;;;;;;5054474;28;20128;-73
2022/04/05 04:43:27;;;;;;;9.20;1.37;;;5.80;88.30;;;;;;5041517;28;20074;-73
2022/04/05 04:45:54;;;;;;;7.75;1.10;;;5.80;88.40;;;;;;5036867;28;20123;-73
2022/04/05 04:48:20;;;;;;;9.68;1.55;;;5.80;88.40;;;;;;5036762;28;20040;-73
2022/04/05 04:50:50;;;;;;;5.88;1.00;;;5.80;88.40;;;;;;5037246;28;20131;-73
2022/04/05 04:53:15;;;;;;;7.00;1.00;;;5.80;88.50;;;;;;5051483;28;20061;-73
2022/04/05 04:55:41;;;;;;;11.57;1.83;;;5.80;88.50;;;;;;5026294;28;20040;-73
2022/04/05 04:58:07;;;;;;;9.13;1.23;;;5.70;88.50;;;;;;5038771;28;20032;-73
2022/04/05 05:00:33;;;;;;;9.27;1.23;;;5.70;88.50;;;;;;5036209;28;20037;-73
2022/04/05 05:02:59;;;;;;;10.03;1.20;;;5.70;88.60;;;;;;5037401;28;20040;-72
2022/04/05 05:05:25;;;;;;;6.50;1.10;;;5.70;88.60;;;;;;5041113;28;20040;-72
2022/04/05 05:07:52;;;;;;;8.95;1.35;;;5.70;88.60;;;;;;5041995;28;20379;-72
2022/04/05 05:10:20;;;;;;;5.63;1.23;;;5.70;88.60;;;;;;5039592;28;20510;-72
2022/04/05 05:12:47;;;;;;;12.85;1.55;;;5.70;88.70;;;;;;5025708;28;20045;-72
2022/04/05 05:15:16;;;;;;;10.93;1.80;;;5.70;88.60;;;;;;5030800;28;20592;-72
2022/04/05 05:17:42;;;;;;;9.63;1.75;;;5.70;88.60;;;;;;5034897;28;20571;-72
2022/04/05 05:20:09;;;;;;;15.13;1.65;;;5.70;88.70;;;;;;5055340;28;20083;-72
2022/04/05 05:22:35;;;;;;;8.73;1.50;;;5.70;88.70;;;;;;5022535;28;20599;-72
2022/04/05 05:25:01;;;;;;;7.63;1.60;;;5.70;88.80;;;;;;5053553;28;20049;-72
2022/04/05 05:27:30;;;;;;;6.33;1.50;;;5.70;88.70;;;;;;5030841;28;20376;-72
2022/04/05 05:29:56;;;;;;;7.75;1.15;;;5.70;88.80;;;;;;5038487;28;20119;-72
2022/04/05 05:32:21;;;;;;;17.53;2.13;;;5.70;88.80;;;;;;5030138;28;20246;-72
2022/04/05 05:34:47;;;;;;;9.77;1.20;;;5.70;88.90;;;;;;5021601;28;20043;-72
2022/04/05 05:37:13;;;;;;;10.30;1.43;;;5.70;88.80;;;;;;5050926;28;20359;-73
2022/04/05 05:39:39;;;;;;;6.57;1.30;;;5.80;88.90;;;;;;5070813;28;20376;-73
2022/04/05 05:42:06;;;;;;;11.63;1.90;;;5.70;88.90;;;;;;5061016;28;20698;-73
2022/04/05 05:44:33;;;;;;;12.73;1.67;;;5.80;88.90;;;;;;5051613;28;20051;-73
2022/04/05 05:46:59;;;;;;;10.73;1.73;;;5.80;88.90;;;;;;5053202;28;20044;-73
2022/04/05 05:49:24;;;;;;;6.68;1.38;;;5.80;88.90;;;;;;5032587;28;20041;-71
2022/04/05 05:51:50;;;;;;;10.57;1.43;;;5.80;89.00;;;;;;5050747;28;20056;-72
2022/04/05 05:54:17;;;;;;;11.20;1.40;;;5.90;89.00;;;;;;5014794;28;20049;-72
2022/04/05 05:56:42;;;;;;;5.72;1.20;;;5.90;89.00;;;;;;5034967;28;20044;-72
2022/04/05 05:59:08;;;;;;;5.53;0.97;;;5.90;89.00;;;;;;5030126;28;20033;-72
2022/04/05 06:01:34;;;;;;;10.32;1.83;;;5.90;89.00;;;;;;5024163;28;20040;-72
2022/04/05 06:04:00;;;;;;;7.83;1.47;;;5.90;89.00;;;;;;5043194;28;20032;-71
2022/04/05 06:06:28;;;;;;;5.63;1.20;;;5.90;89.00;;;;;;5053122;28;20044;-71
2022/04/05 06:08:55;;;;;;;7.63;1.30;;;6.00;89.00;;;;;;5040551;28;20048;-71
2022/04/05 06:11:22;;;;;;;6.00;1.30;;;6.00;88.90;;;;;;5022605;28;20094;-71
2022/04/05 06:13:48;;;;;;;5.30;1.17;;;6.00;88.90;;;;;;5059503;28;20405;-72
2022/04/05 06:16:14;;;;;;;6.20;0.95;;;6.10;88.90;;;;;;5038153;28;20051;-72
2022/04/05 06:18:42;;;;;;;9.30;1.23;;;6.20;89.00;;;;;;5053805;28;20044;-72
2022/04/05 06:21:08;;;;;;;7.78;1.23;;;6.20;89.00;;;;;;5040403;28;20047;-72
2022/04/05 06:23:34;;;;;;;6.22;1.00;;;6.30;88.90;;;;;;5052717;28;20142;-72
2022/04/05 06:26:00;;;;;;;7.88;1.00;;;6.40;88.90;;;;;;5049312;28;20147;-72
2022/04/05 06:28:26;;;;;;;6.20;1.40;;;6.50;89.00;;;;;;5035404;28;20051;-72
2022/04/05 06:30:52;;;;;;;8.30;1.83;;;6.50;88.90;;;;;;5038246;28;20041;-72
2022/04/05 06:33:20;;;;;;;5.30;1.47;;;6.60;88.90;;;;;;5051981;28;20052;-72
2022/04/05 06:35:52;;;;;;;7.60;0.98;;;6.70;88.80;;;;;;5049571;28;20688;-72
2022/04/05 06:38:18;;;;;;;9.45;1.40;;;6.70;88.50;;;;;;5056870;28;20044;-72
2022/04/05 06:40:43;;;;;;;9.13;0.90;;;6.70;88.20;;;;;;5049044;28;20041;-72
2022/04/05 06:43:14;;;;;;;9.87;1.23;;;6.70;88.20;;;;;;5036455;28;20070;-72
2022/04/05 06:45:41;;;;;;;3.20;0.80;;;6.70;88.10;;;;;;5052786;28;20051;-72
2022/04/05 06:48:09;;;;;;;6.93;1.00;;;6.70;87.70;;;;;;5025733;28;20048;-72
2022/04/05 06:50:35;;;;;;;5.53;1.58;;;6.70;87.70;;;;;;5037994;28;20052;-72
2022/04/05 06:53:03;;;;;;;5.45;1.00;;;6.70;87.40;;;;;;5052616;28;20041;-72
2022/04/05 06:55:29;;;;;;;6.68;1.17;;;6.70;87.40;;;;;;5051532;28;20519;-72
2022/04/05 06:57:55;;;;;;;8.00;1.40;;;6.70;87.50;;;;;;5032149;28;20134;-72
2022/04/05 07:00:23;;;;;;;6.22;1.00;;;6.70;87.20;;;;;;5060318;28;20036;-73
2022/04/05 07:02:51;;;;;;;9.77;1.40;;;6.70;87.30;;;;;;5056176;28;20047;-72
2022/04/05 07:05:17;;;;;;;10.60;1.58;;;6.80;87.30;;;;;;5024554;28;20391;-72
2022/04/05 07:07:43;;;;;;;6.13;0.93;;;6.70;86.90;;;;;;5051360;28;20146;-72
2022/04/05 07:10:12;;;;;;;7.80;1.23;;;6.80;87.10;;;;;;5058196;28;20082;-72
2022/04/05 07:12:38;;;;;;;6.55;0.80;;;6.80;87.20;;;;;;5040800;28;20036;-72
2022/04/05 07:15:05;;;;;;;9.13;1.27;;;6.80;87.20;;;;;;5055246;28;20178;-73
2022/04/05 07:17:31;;;;;;;5.80;1.05;;;6.90;87.10;;;;;;5021373;28;20473;-72
2022/04/05 07:19:57;;;;;;;5.33;1.03;;;6.90;86.70;;;;;;5047818;28;20043;-72
2022/04/05 07:22:24;;;;;;;6.27;0.63;;;6.90;86.70;;;;;;5043705;28;20157;-72
2022/04/05 07:24:49;;;;;;;8.25;1.17;;;7.00;87.00;;;;;;5038794;28;20043;-73
2022/04/05 07:27:15;;;;;;;5.10;0.97;;;7.10;87.10;;;;;;5040760;28;20394;-72
2022/04/05 07:29:41;;;;;;;5.77;0.90;;;7.20;87.00;;;;;;5025252;28;20038;-72
2022/04/05 07:32:07;;;;;;;7.63;0.97;;;7.20;86.80;;;;;;5040633;28;20708;-73
2022/04/05 07:34:33;;;;;;;6.40;0.80;;;7.20;86.60;;;;;;5059499;28;20517;-72
2022/04/05 07:36:59;;;;;;;5.67;0.93;;;7.30;86.90;;;;;;5056304;28;20068;-72
2022/04/05 07:39:25;;;;;;;9.00;1.08;;;7.40;87.00;;;;;;5038252;28;20377;-72
2022/04/05 07:41:51;;;;;;;7.97;1.05;;;7.60;87.00;;;;;;5040166;28;20040;-72
2022/04/05 07:44:17;;;;;;;4.45;0.60;;;7.70;87.00;;;;;;5039040;28;20500;-72
2022/04/05 07:46:44;;;;;;;4.60;0.93;;;7.70;86.40;;;;;;5050997;28;20760;-72
2022/04/05 07:49:10;;;;;;;3.85;0.88;;;7.60;86.00;;;;;;5040590;28;20128;-72
2022/04/05 07:51:35;;;;;;;4.40;1.07;;;7.50;85.80;;;;;;5026427;28;20680;-72
2022/04/05 07:54:01;;;;;;;4.13;0.90;;;7.60;86.00;;;;;;5043823;28;20753;-72
2022/04/05 07:56:27;;;;;;;4.37;0.90;;;7.60;86.10;;;;;;5042242;28;20048;-72
2022/04/05 07:58:52;;;;;;;3.43;0.43;;;7.70;86.30;;;;;;5059731;28;20728;-72
2022/04/05 08:01:18;;;;;;;4.37;0.63;;;7.70;85.90;;;;;;5061944;28;20043;-72
2022/04/05 08:03:44;;;;;;;4.13;0.80;;;7.70;85.50;;;;;;5044369;28;20044;-72
2022/04/05 08:06:10;;;;;;;3.80;0.60;;;7.70;85.50;;;;;;5062700;28;20288;-72
2022/04/05 08:08:36;;;;;;;4.10;0.50;;;7.70;85.70;;;;;;5033748;28;20617;-72
2022/04/05 08:11:01;;;;;;;6.07;0.40;;;7.70;85.30;;;;;;5059133;28;20069;-72
2022/04/05 08:13:27;;;;;;;2.03;0.40;;;7.70;85.70;;;;;;5060943;28;20056;-72
2022/04/05 08:15:53;;;;;;;2.97;0.40;;;7.80;85.60;;;;;;5053327;28;20128;-72
2022/04/05 08:18:20;;;;;;;2.78;0.60;;;7.80;86.00;;;;;;5053963;28;20119;-72
2022/04/05 08:20:46;;;;;;;3.70;0.50;;;7.90;85.80;;;;;;5030315;28;20151;-72
2022/04/05 08:23:12;;;;;;;2.60;0.50;;;8.10;86.00;;;;;;5054711;28;20135;-72
2022/04/05 08:25:37;;;;;;;3.47;0.70;;;8.20;85.50;;;;;;5060664;28;20454;-72
2022/04/05 08:28:04;;;;;;;1.97;0.63;;;8.20;85.40;;;;;;5033429;28;20320;-72
2022/04/05 08:30:30;;;;;;;3.83;0.80;;;8.40;85.80;;;;;;5044933;28;20048;-72
2022/04/05 08:32:56;;;;;;;3.17;0.60;;;8.40;85.40;;;;;;5056770;28;20047;-72
2022/04/05 08:35:23;;;;;;;3.38;0.50;;;8.40;85.00;;;;;;5038240;28;20109;-72
2022/04/05 08:37:51;;;;;;;2.38;0.60;;;8.40;85.00;;;;;;5037652;28;20045;-72
2022/04/05 08:40:20;;;;;;;3.75;0.60;;;8.40;84.80;;;;;;5034491;28;20036;-72
2022/04/05 08:42:49;;;;;;;4.63;0.70;;;8.40;84.90;;;;;;5065448;28;20496;-72
2022/04/05 08:45:16;;;;;;;5.25;0.73;;;8.40;85.10;;;;;;5064887;28;20051;-72
2022/04/05 08:47:54;;;;;;;2.47;0.90;;;8.40;85.30;;;;;;5035302;28;20055;-72
2022/04/05 08:50:26;;;;;;;2.40;0.50;;;8.30;84.80;;;;;;5034768;28;20044;-71
2022/04/05 08:52:54;;;;;;;2.25;0.60;;;8.30;84.70;;;;;;5050714;28;20048;-71
2022/04/05 08:55:20;;;;;;;2.30;1.10;;;8.30;85.10;;;;;;5034061;28;20135;-72
2022/04/05 08:57:46;;;;;;;2.30;0.68;;;8.30;84.70;;;;;;5031989;28;20064;-72
2022/04/05 09:00:14;;;;;;;2.05;0.70;;;8.30;84.90;;;;;;5046564;28;20040;-72
2022/04/05 09:02:52;;;;;;;2.03;0.50;;;8.30;84.90;;;;;;5056401;28;20045;-72
2022/04/05 09:05:28;;;;;;;2.78;0.65;;;8.30;84.50;;;;;;5051535;28;20052;-72
2022/04/05 09:08:10;;;;;;;2.45;0.60;;;8.30;84.50;;;;;;5036464;28;20053;-72
2022/04/05 09:10:36;;;;;;;2.40;0.50;;;8.30;84.80;;;;;;5040125;28;20078;-72
2022/04/05 09:13:01;;;;;;;2.10;0.60;;;8.40;85.00;;;;;;5027856;28;20058;-72
2022/04/05 09:15:27;;;;;;;1.80;0.60;;;8.40;84.80;;;;;;5055218;28;20037;-72
2022/04/05 09:17:53;;;;;;;2.10;0.70;;;8.60;84.90;;;;;;5060929;28;20048;-72
2022/04/05 09:20:20;;;;;;;3.08;0.80;;;8.70;85.30;;;;;;5024201;28;20079;-72
2022/04/05 09:22:46;;;;;;;1.38;0.45;;;8.70;84.20;;;;;;5051416;28;20052;-72
2022/04/05 09:25:15;;;;;;;0.98;0.60;;;8.70;84.40;;;;;;5058922;28;20045;-72
2022/04/05 09:27:58;;;;;;;2.38;0.50;;;8.80;84.70;;;;;;5047284;28;20500;-72
2022/04/05 09:30:31;;;;;;;2.92;0.80;;;8.90;84.90;;;;;;5060645;28;20049;-72
2022/04/05 09:32:59;;;;;;;0.80;0.40;;;8.90;84.80;;;;;;5053913;28;20334;-72
2022/04/05 09:35:41;;;;;;;1.63;0.50;;;9.00;84.70;;;;;;5045031;28;20552;-72
2022/04/05 09:38:15;;;;;;;1.35;0.50;;;9.00;84.50;;;;;;5046247;28;20040;-71
2022/04/05 09:40:42;;;;;;;1.20;0.60;;;9.10;84.30;;;;;;5059205;28;20040;-72
2022/04/05 09:43:13;;;;;;;2.10;0.40;;;9.20;84.50;;;;;;5042022;28;20082;-72
2022/04/05 09:45:42;;;;;;;0.80;0.32;;;9.10;83.50;;;;;;5059564;28;20044;-72
2022/04/05 09:48:08;;;;;;;1.13;0.40;;;9.10;83.80;;;;;;5057822;28;20056;-72
2022/04/05 09:50:58;;;;;;;0.80;0.40;;;9.10;83.80;;;;;;5032702;28;20384;-72
2022/04/05 09:53:25;;;;;;;0.88;0.20;;;9.20;84.10;;;;;;5046246;28;20076;-72
2022/04/05 09:56:15;;;;;;;1.13;0.30;;;9.30;84.30;;;;;;5044847;28;20063;-72
2022/04/05 09:58:46;;;;;;;1.02;0.30;;;9.40;82.90;;;;;;5045036;28;20036;-72
2022/04/05 10:01:13;;;;;;;1.80;0.40;;;9.40;83.40;;;;;;5061070;28;20055;-72
2022/04/05 10:03:42;;;;;;;0.88;0.40;;;9.50;83.30;;;;;;5061395;28;20055;-72
2022/04/05 10:06:09;;;;;;;0.80;0.45;;;9.80;83.70;;;;;;5047285;28;20081;-72
2022/04/05 10:08:37;;;;;;;0.90;0.50;;;10.10;84.10;;;;;;5062769;28;20044;-72
2022/04/05 10:11:03;;;;;;;1.27;0.50;;;10.50;83.50;;;;;;5051425;28;20082;-72
2022/04/05 10:13:30;;;;;;;1.73;0.70;;;10.60;82.20;;;;;;5021365;28;20371;-72
2022/04/05 10:15:57;;;;;;;1.27;0.50;;;10.70;82.30;;;;;;5064187;28;20175;-72
2022/04/05 10:18:32;;;;;;;1.00;0.70;;;10.60;81.50;;;;;;5048828;28;20296;-72
2022/04/05 10:21:00;;;;;;;1.13;0.60;;;10.60;81.50;;;;;;5061556;28;20734;-72
2022/04/05 10:23:26;;;;;;;2.20;0.80;;;10.80;82.00;;;;;;5062852;28;20044;-72
2022/04/05 10:25:53;;;;;;;1.93;0.97;;;10.90;82.10;;;;;;5051838;28;20279;-72
2022/04/05 10:28:31;;;;;;;1.50;1.17;;;10.90;80.10;;;;;;5044400;28;20297;-72
2022/04/05 10:31:34;;;;;;;1.63;1.23;;;11.00;80.60;;;;;;5041012;28;20328;-72
2022/04/05 10:34:21;;;;;;;1.57;1.23;;;11.20;80.00;;;;;;5051843;28;20314;-72
2022/04/05 10:37:07;;;;;;;2.47;1.17;;;11.20;79.70;;;;;;5060249;28;20275;-72
2022/04/05 10:39:33;;;;;;;;;;;11.30;79.60;;;;;;5040828;28;20287;-72
2022/04/05 10:42:11;;;;;;;1.97;1.30;;;11.30;78.10;;;;;;5056212;28;19915;-72
2022/04/05 10:44:39;;;;;;;2.53;1.40;;;11.30;79.10;;;;;;5057577;28;20106;-71
2022/04/05 10:47:07;;;;;;;2.40;1.60;;;11.20;78.40;;;;;;5031993;28;20287;-72
2022/04/05 10:49:44;;;;;;;2.37;1.70;;;11.30;79.30;;;;;;5039513;28;20353;-72
2022/04/05 10:52:26;;;;;;;2.47;1.93;;;11.40;79.00;;;;;;5045123;28;20306;-72
2022/04/05 10:55:08;;;;;;;2.50;1.80;;;11.50;78.90;;;;;;5050313;28;20691;-72
2022/04/05 10:57:40;;;;;;;2.80;2.13;;;11.70;79.50;;;;;;5055065;28;20300;-72
2022/04/05 11:00:28;;;;;;;3.70;2.40;;;11.90;79.20;;;;;;5061600;28;20674;-72
2022/04/05 11:02:53;;;;;;;3.10;2.10;;;12.10;78.30;;;;;;5056649;28;20286;-72
2022/04/05 11:05:19;;;;;;;3.17;2.53;;;12.10;76.80;;;;;;5062683;28;20285;-72
2022/04/05 11:07:54;;;;;;;3.33;2.30;;;12.10;77.30;;;;;;5042732;28;20504;-72
2022/04/05 11:10:27;;;;;;;3.67;2.78;;;12.10;77.20;;;;;;5046929;28;20134;-72
2022/04/05 11:13:31;;;;;;;3.60;2.80;;;12.10;77.80;;;;;;5035520;28;20496;-72
2022/04/05 11:15:57;;;;;;;4.47;3.37;;;12.00;77.30;;;;;;5051339;28;20653;-72
2022/04/05 11:18:26;;;;;;;5.10;3.40;;;11.90;76.40;;;;;;5044722;28;20791;-72
2022/04/05 11:20:57;;;;;;;4.43;3.50;;;11.90;77.20;;;;;;5061720;28;20709;-72
2022/04/05 11:23:58;;;;;;;4.93;3.33;;;11.90;77.40;;;;;;5062060;28;20701;-72
2022/04/05 11:26:35;;;;;;;4.47;3.27;;;12.00;77.10;;;;;;4993184;28;20769;-72
2022/04/05 11:29:17;;;;;;;5.90;3.07;;;12.10;77.40;;;;;;5047254;28;20369;-72
2022/04/05 11:31:43;;;;;;;6.83;3.60;;;12.00;77.10;;;;;;5060842;28;20694;-72
2022/04/05 11:34:46;;;;;;;8.03;4.63;;;12.10;76.80;;;;;;5015926;28;20311;-72
2022/04/05 11:37:12;;;;;;;5.43;2.77;;;12.10;76.70;;;;;;5001875;28;20049;-72
2022/04/05 11:39:40;;;;;;;7.37;4.33;;;12.00;76.30;;;;;;5045204;28;20301;-72
2022/04/05 11:42:06;;;;;;;7.83;4.37;;;11.90;76.60;;;;;;5059480;28;20278;-71
2022/04/05 11:44:32;;;;;;;6.80;4.50;;;11.80;76.70;;;;;;5066999;28;20288;-71
2022/04/05 11:46:59;;;;;;;7.70;4.30;;;11.80;76.90;;;;;;5043442;28;20531;-72
2022/04/05 11:49:25;;;;;;;10.87;4.50;;;11.70;76.80;;;;;;5058550;28;20305;-72
2022/04/05 11:51:52;;;;;;;10.60;4.67;;;11.60;76.70;;;;;;5061068;28;20278;-72
2022/04/05 11:54:28;;;;;;;7.50;4.50;;;11.50;77.20;;;;;;5045620;28;20156;-71
2022/04/05 11:57:03;;;;;;;8.37;4.73;;;11.40;77.70;;;;;;5038979;28;20754;-71
2022/04/05 11:59:29;;;;;;;7.55;4.45;;;11.30;78.10;;;;;;5050912;28;20782;-71
2022/04/05 12:01:55;;;;;;;11.40;4.70;;;11.30;78.30;;;;;;5066121;28;20113;-71
2022/04/05 12:04:22;;;;;;;13.17;4.93;;;11.20;78.60;;;;;;5047759;28;20362;-72
2022/04/05 12:06:53;;;;;;;10.37;4.20;;;11.20;79.00;;;;;;5049968;28;20036;-71
2022/04/05 12:09:21;;;;;;;7.20;3.70;;;11.10;79.50;;;;;;5062619;28;20623;-71
2022/04/05 12:11:51;;;;;;;5.87;3.00;;;11.10;79.80;;;;;;5067260;28;20336;-71
2022/04/05 12:14:24;;;;;;;11.93;4.30;;;11.00;80.10;;;;;;5061129;28;20332;-71
2022/04/05 12:16:54;;;;;;;11.33;4.70;;;10.90;80.10;;;;;;5071037;28;20369;-71
2022/04/05 12:19:28;;;;;;;15.80;5.40;;;10.80;80.30;;;;;;5048720;28;20286;-71
2022/04/05 12:21:56;;;;;;;11.00;5.20;;;10.70;80.60;;;;;;5062757;28;20412;-71
2022/04/05 12:24:23;;;;;;;11.60;4.87;;;10.60;81.00;;;;;;5055940;28;20301;-71
2022/04/05 12:26:49;;;;;;;10.30;4.90;;;10.60;81.20;;;;;;5040791;28;20283;-72
2022/04/05 12:29:15;;;;;;;13.33;4.83;;;10.60;81.20;;;;;;5057074;28;20301;-71
2022/04/05 12:31:40;;;;;;;16.03;5.73;;;10.50;81.30;;;;;;5035137;28;20454;-71
2022/04/05 12:34:13;;;;;;;18.93;6.27;;;10.50;81.70;;;;;;5058957;28;20048;-71
2022/04/05 12:36:48;;;;;;;17.43;6.00;;;10.40;81.70;;;;;;5064084;28;20044;-71
2022/04/05 12:39:25;;;;;;;16.55;6.05;;;10.40;81.90;;;;;;5056588;28;20278;-71
2022/04/05 12:42:12;;;;;;;16.27;6.37;;;10.30;81.90;;;;;;5040867;28;20047;-71
2022/04/05 12:44:42;;;;;;;19.13;6.63;;;10.20;82.10;;;;;;5059333;28;20295;-72
2022/04/05 12:47:16;;;;;;;21.67;6.70;;;10.20;82.20;;;;;;5063644;28;20304;-72
2022/04/05 12:49:49;;;;;;;18.37;5.83;;;10.20;82.50;;;;;;5045416;28;20894;-71
2022/04/05 12:52:20;;;;;;;19.73;7.17;;;10.10;82.80;;;;;;5065866;28;20322;-71
2022/04/05 12:54:50;;;;;;;22.20;7.43;;;10.10;83.10;;;;;;5056991;28;20326;-72
2022/04/05 12:57:24;;;;;;;20.08;7.20;;;10.10;83.30;;;;;;5057200;28;20297;-72
2022/04/05 12:59:53;;;;;;;29.02;8.13;;;10.10;83.00;;;;;;5065447;28;20047;-72